sensor_id;sensor_type;location;lat;lon;timestamp;temperature;humidity
69418;DHT22;56610;48.872;2.400;2023-03-01T00:01:27;6.90;83.10
69418;DHT22;56610;48.872;2.400;2023-03-01T00:03:56;7.10;83.10
69418;DHT22;56610;48.872;2.400;2023-03-01T00:06:23;7.10;82.90
69418;DHT22;56610;48.872;2.400;2023-03-01T00:08:49;7.10;82.90
69418;DHT22;56610;48.872;2.400;2023-03-01T00:11:16;7.10;83.10
69418;DHT22;56610;48.872;2.400;2023-03-01T00:13:44;7.20;83.50
69418;DHT22;56610;48.872;2.400;2023-03-01T00:16:13;7.30;83.20
69418;DHT22;56610;48.872;2.400;2023-03-01T00:18:40;7.50;83.00
69418;DHT22;56610;48.872;2.400;2023-03-01T00:21:05;7.70;82.60
69418;DHT22;56610;48.872;2.400;2023-03-01T00:23:33;7.80;82.50
69418;DHT22;56610;48.872;2.400;2023-03-01T00:25:59;8.00;81.90
69418;DHT22;56610;48.872;2.400;2023-03-01T00:28:25;8.10;81.80
69418;DHT22;56610;48.872;2.400;2023-03-01T00:30:50;7.90;82.00
69418;DHT22;56610;48.872;2.400;2023-03-01T00:33:16;8.10;82.00
69418;DHT22;56610;48.872;2.400;2023-03-01T00:35:42;7.90;82.20
69418;DHT22;56610;48.872;2.400;2023-03-01T00:38:08;7.80;82.40
69418;DHT22;56610;48.872;2.400;2023-03-01T00:40:35;7.80;82.20
69418;DHT22;56610;48.872;2.400;2023-03-01T00:43:01;7.70;82.60
69418;DHT22;56610;48.872;2.400;2023-03-01T00:45:30;7.50;82.90
69418;DHT22;56610;48.872;2.400;2023-03-01T00:47:56;7.50;83.00
69418;DHT22;56610;48.872;2.400;2023-03-01T00:50:23;7.40;83.00
69418;DHT22;56610;48.872;2.400;2023-03-01T00:52:52;7.30;83.50
69418;DHT22;56610;48.872;2.400;2023-03-01T00:55:18;7.40;83.60
69418;DHT22;56610;48.872;2.400;2023-03-01T00:57:44;7.50;83.40
69418;DHT22;56610;48.872;2.400;2023-03-01T01:00:10;7.50;83.60
69418;DHT22;56610;48.872;2.400;2023-03-01T01:02:37;7.60;83.60
69418;DHT22;56610;48.872;2.400;2023-03-01T01:05:03;7.40;83.60
69418;DHT22;56610;48.872;2.400;2023-03-01T01:07:29;7.30;84.10
69418;DHT22;56610;48.872;2.400;2023-03-01T01:09:54;7.30;83.80
69418;DHT22;56610;48.872;2.400;2023-03-01T01:12:20;7.40;83.90
69418;DHT22;56610;48.872;2.400;2023-03-01T01:14:46;7.50;83.90
69418;DHT22;56610;48.872;2.400;2023-03-01T01:17:11;7.40;84.00
69418;DHT22;56610;48.872;2.400;2023-03-01T01:19:37;7.20;84.10
69418;DHT22;56610;48.872;2.400;2023-03-01T01:22:02;7.30;84.10
69418;DHT22;56610;48.872;2.400;2023-03-01T01:24:29;7.10;84.20
69418;DHT22;56610;48.872;2.400;2023-03-01T01:26:54;6.80;84.40
69418;DHT22;56610;48.872;2.400;2023-03-01T01:29:20;6.90;84.80
69418;DHT22;56610;48.872;2.400;2023-03-01T01:31:45;6.80;85.00
69418;DHT22;56610;48.872;2.400;2023-03-01T01:34:16;6.90;85.10
69418;DHT22;56610;48.872;2.400;2023-03-01T01:36:43;6.90;85.40
69418;DHT22;56610;48.872;2.400;2023-03-01T01:39:09;6.70;86.10
69418;DHT22;56610;48.872;2.400;2023-03-01T01:41:39;6.70;85.80
69418;DHT22;56610;48.872;2.400;2023-03-01T01:46:42;6.80;85.60
69418;DHT22;56610;48.872;2.400;2023-03-01T01:49:37;6.70;85.40
69418;DHT22;56610;48.872;2.400;2023-03-01T01:52:05;6.80;85.60
69418;DHT22;56610;48.872;2.400;2023-03-01T01:57:03;6.60;85.80
69418;DHT22;56610;48.872;2.400;2023-03-01T01:59:31;6.60;86.00
69418;DHT22;56610;48.872;2.400;2023-03-01T02:02:00;6.70;85.80
69418;DHT22;56610;48.872;2.400;2023-03-01T02:04:28;6.70;85.70
69418;DHT22;56610;48.872;2.400;2023-03-01T02:07:26;6.70;86.30
69418;DHT22;56610;48.872;2.400;2023-03-01T02:09:52;7.00;85.80
69418;DHT22;56610;48.872;2.400;2023-03-01T02:12:21;7.30;85.80
69418;DHT22;56610;48.872;2.400;2023-03-01T02:14:48;7.60;84.80
69418;DHT22;56610;48.872;2.400;2023-03-01T02:17:15;7.60;84.40
69418;DHT22;56610;48.872;2.400;2023-03-01T02:19:44;7.70;84.70
69418;DHT22;56610;48.872;2.400;2023-03-01T02:22:30;7.60;84.70
69418;DHT22;56610;48.872;2.400;2023-03-01T02:28:08;7.50;84.90
69418;DHT22;56610;48.872;2.400;2023-03-01T02:30:36;7.60;85.20
69418;DHT22;56610;48.872;2.400;2023-03-01T02:33:22;7.70;84.80
69418;DHT22;56610;48.872;2.400;2023-03-01T02:35:47;7.40;85.40
69418;DHT22;56610;48.872;2.400;2023-03-01T02:38:13;7.60;85.30
69418;DHT22;56610;48.872;2.400;2023-03-01T02:40:40;7.60;85.40
69418;DHT22;56610;48.872;2.400;2023-03-01T02:43:08;7.80;84.70
69418;DHT22;56610;48.872;2.400;2023-03-01T02:45:35;7.80;84.70
69418;DHT22;56610;48.872;2.400;2023-03-01T02:48:01;7.70;85.10
69418;DHT22;56610;48.872;2.400;2023-03-01T02:53:15;7.30;85.30
69418;DHT22;56610;48.872;2.400;2023-03-01T02:55:42;7.30;86.10
69418;DHT22;56610;48.872;2.400;2023-03-01T02:58:07;7.40;85.90
69418;DHT22;56610;48.872;2.400;2023-03-01T03:00:39;7.40;85.80
69418;DHT22;56610;48.872;2.400;2023-03-01T03:03:14;7.40;86.00
69418;DHT22;56610;48.872;2.400;2023-03-01T03:05:41;7.40;85.70
69418;DHT22;56610;48.872;2.400;2023-03-01T03:08:06;7.60;85.70
69418;DHT22;56610;48.872;2.400;2023-03-01T03:10:36;7.80;85.40
69418;DHT22;56610;48.872;2.400;2023-03-01T03:13:08;7.80;85.30
69418;DHT22;56610;48.872;2.400;2023-03-01T03:15:34;7.80;85.20
69418;DHT22;56610;48.872;2.400;2023-03-01T03:18:02;7.90;85.00
69418;DHT22;56610;48.872;2.400;2023-03-01T03:20:28;7.80;84.90
69418;DHT22;56610;48.872;2.400;2023-03-01T03:22:55;7.70;85.20
69418;DHT22;56610;48.872;2.400;2023-03-01T03:25:21;7.80;85.30
69418;DHT22;56610;48.872;2.400;2023-03-01T03:27:49;7.80;85.40
69418;DHT22;56610;48.872;2.400;2023-03-01T03:30:18;7.50;85.60
69418;DHT22;56610;48.872;2.400;2023-03-01T03:32:45;7.50;86.10
69418;DHT22;56610;48.872;2.400;2023-03-01T03:35:22;7.30;86.10
69418;DHT22;56610;48.872;2.400;2023-03-01T03:37:48;7.20;86.20
69418;DHT22;56610;48.872;2.400;2023-03-01T03:40:37;7.10;86.70
69418;DHT22;56610;48.872;2.400;2023-03-01T03:43:05;7.10;86.90
69418;DHT22;56610;48.872;2.400;2023-03-01T03:45:31;7.10;86.80
69418;DHT22;56610;48.872;2.400;2023-03-01T03:48:02;7.10;87.00
69418;DHT22;56610;48.872;2.400;2023-03-01T03:50:29;7.00;87.20
69418;DHT22;56610;48.872;2.400;2023-03-01T03:52:54;7.00;87.30
69418;DHT22;56610;48.872;2.400;2023-03-01T03:55:20;6.90;87.40
69418;DHT22;56610;48.872;2.400;2023-03-01T03:57:47;6.70;88.00
69418;DHT22;56610;48.872;2.400;2023-03-01T04:00:19;6.50;88.10
69418;DHT22;56610;48.872;2.400;2023-03-01T04:02:45;6.40;88.90
69418;DHT22;56610;48.872;2.400;2023-03-01T04:05:14;6.30;89.10
69418;DHT22;56610;48.872;2.400;2023-03-01T04:07:41;6.10;89.60
69418;DHT22;56610;48.872;2.400;2023-03-01T04:10:13;6.10;89.80
69418;DHT22;56610;48.872;2.400;2023-03-01T04:12:39;6.10;89.70
69418;DHT22;56610;48.872;2.400;2023-03-01T04:15:06;6.10;89.70
69418;DHT22;56610;48.872;2.400;2023-03-01T04:17:45;6.10;90.10
69418;DHT22;56610;48.872;2.400;2023-03-01T04:20:15;6.00;90.10
69418;DHT22;56610;48.872;2.400;2023-03-01T04:22:51;6.00;90.10
69418;DHT22;56610;48.872;2.400;2023-03-01T04:25:17;5.90;90.30
69418;DHT22;56610;48.872;2.400;2023-03-01T04:27:43;5.90;90.30
69418;DHT22;56610;48.872;2.400;2023-03-01T04:30:09;5.80;90.20
69418;DHT22;56610;48.872;2.400;2023-03-01T04:32:35;5.80;90.50
69418;DHT22;56610;48.872;2.400;2023-03-01T04:35:01;5.90;90.50
69418;DHT22;56610;48.872;2.400;2023-03-01T04:37:27;5.80;90.40
69418;DHT22;56610;48.872;2.400;2023-03-01T04:39:52;5.90;90.50
69418;DHT22;56610;48.872;2.400;2023-03-01T04:42:18;5.70;90.70
69418;DHT22;56610;48.872;2.400;2023-03-01T04:44:44;5.70;90.60
69418;DHT22;56610;48.872;2.400;2023-03-01T04:47:10;5.80;90.70
69418;DHT22;56610;48.872;2.400;2023-03-01T04:49:36;5.70;90.80
69418;DHT22;56610;48.872;2.400;2023-03-01T04:52:02;5.70;90.70
69418;DHT22;56610;48.872;2.400;2023-03-01T04:54:29;5.70;90.80
69418;DHT22;56610;48.872;2.400;2023-03-01T04:56:55;5.60;91.10
69418;DHT22;56610;48.872;2.400;2023-03-01T04:59:21;5.70;90.90
69418;DHT22;56610;48.872;2.400;2023-03-01T05:01:48;5.70;90.90
69418;DHT22;56610;48.872;2.400;2023-03-01T05:04:14;5.70;91.00
69418;DHT22;56610;48.872;2.400;2023-03-01T05:06:40;5.60;91.10
69418;DHT22;56610;48.872;2.400;2023-03-01T05:09:06;5.50;91.20
69418;DHT22;56610;48.872;2.400;2023-03-01T05:11:32;5.40;91.40
69418;DHT22;56610;48.872;2.400;2023-03-01T05:14:02;5.50;91.40
69418;DHT22;56610;48.872;2.400;2023-03-01T05:16:27;5.60;91.30
69418;DHT22;56610;48.872;2.400;2023-03-01T05:18:53;5.50;91.40
69418;DHT22;56610;48.872;2.400;2023-03-01T05:21:21;5.50;91.40
69418;DHT22;56610;48.872;2.400;2023-03-01T05:23:46;5.50;91.40
69418;DHT22;56610;48.872;2.400;2023-03-01T05:26:12;5.30;91.60
69418;DHT22;56610;48.872;2.400;2023-03-01T05:28:39;5.30;91.50
69418;DHT22;56610;48.872;2.400;2023-03-01T05:31:05;5.10;91.80
69418;DHT22;56610;48.872;2.400;2023-03-01T05:33:39;5.10;92.00
69418;DHT22;56610;48.872;2.400;2023-03-01T05:36:08;5.10;92.00
69418;DHT22;56610;48.872;2.400;2023-03-01T05:38:35;5.20;91.90
69418;DHT22;56610;48.872;2.400;2023-03-01T05:41:01;5.20;91.90
69418;DHT22;56610;48.872;2.400;2023-03-01T05:43:30;5.10;92.30
69418;DHT22;56610;48.872;2.400;2023-03-01T05:45:57;5.20;92.00
69418;DHT22;56610;48.872;2.400;2023-03-01T05:48:23;5.30;92.20
69418;DHT22;56610;48.872;2.400;2023-03-01T05:50:48;5.20;92.30
69418;DHT22;56610;48.872;2.400;2023-03-01T05:53:19;5.10;92.20
69418;DHT22;56610;48.872;2.400;2023-03-01T05:55:46;5.00;92.30
69418;DHT22;56610;48.872;2.400;2023-03-01T05:58:15;5.10;92.40
69418;DHT22;56610;48.872;2.400;2023-03-01T06:00:42;5.10;92.30
69418;DHT22;56610;48.872;2.400;2023-03-01T06:03:10;5.00;92.40
69418;DHT22;56610;48.872;2.400;2023-03-01T06:05:36;5.10;92.60
69418;DHT22;56610;48.872;2.400;2023-03-01T06:08:02;5.00;92.50
69418;DHT22;56610;48.872;2.400;2023-03-01T06:10:28;5.00;92.70
69418;DHT22;56610;48.872;2.400;2023-03-01T06:12:54;4.90;93.10
69418;DHT22;56610;48.872;2.400;2023-03-01T06:15:20;4.90;92.90
69418;DHT22;56610;48.872;2.400;2023-03-01T06:17:46;4.90;93.10
69418;DHT22;56610;48.872;2.400;2023-03-01T06:22:38;5.00;93.10
69418;DHT22;56610;48.872;2.400;2023-03-01T06:25:05;5.00;93.10
69418;DHT22;56610;48.872;2.400;2023-03-01T06:27:31;5.10;93.40
69418;DHT22;56610;48.872;2.400;2023-03-01T06:29:56;4.90;93.20
69418;DHT22;56610;48.872;2.400;2023-03-01T06:32:22;4.80;93.50
69418;DHT22;56610;48.872;2.400;2023-03-01T06:34:48;4.80;93.80
69418;DHT22;56610;48.872;2.400;2023-03-01T06:37:13;4.70;94.00
69418;DHT22;56610;48.872;2.400;2023-03-01T06:39:39;4.70;93.80
69418;DHT22;56610;48.872;2.400;2023-03-01T06:42:04;4.90;94.00
69418;DHT22;56610;48.872;2.400;2023-03-01T06:44:31;4.90;93.60
69418;DHT22;56610;48.872;2.400;2023-03-01T06:46:58;4.90;93.80
69418;DHT22;56610;48.872;2.400;2023-03-01T06:49:24;4.90;93.80
69418;DHT22;56610;48.872;2.400;2023-03-01T06:51:50;4.80;93.80
69418;DHT22;56610;48.872;2.400;2023-03-01T06:54:16;4.80;94.00
69418;DHT22;56610;48.872;2.400;2023-03-01T06:56:43;4.60;94.30
69418;DHT22;56610;48.872;2.400;2023-03-01T06:59:11;4.60;94.20
69418;DHT22;56610;48.872;2.400;2023-03-01T07:01:37;4.50;94.50
69418;DHT22;56610;48.872;2.400;2023-03-01T07:04:02;4.60;94.60
69418;DHT22;56610;48.872;2.400;2023-03-01T07:06:28;4.70;94.60
69418;DHT22;56610;48.872;2.400;2023-03-01T07:08:53;4.60;94.50
69418;DHT22;56610;48.872;2.400;2023-03-01T07:11:19;4.50;94.80
69418;DHT22;56610;48.872;2.400;2023-03-01T07:13:45;4.40;94.90
69418;DHT22;56610;48.872;2.400;2023-03-01T07:16:11;4.40;95.10
69418;DHT22;56610;48.872;2.400;2023-03-01T07:18:36;4.40;95.10
69418;DHT22;56610;48.872;2.400;2023-03-01T07:21:07;4.40;95.40
69418;DHT22;56610;48.872;2.400;2023-03-01T07:23:34;4.40;95.50
69418;DHT22;56610;48.872;2.400;2023-03-01T07:25:59;4.40;95.40
69418;DHT22;56610;48.872;2.400;2023-03-01T07:28:28;4.40;95.80
69418;DHT22;56610;48.872;2.400;2023-03-01T07:30:54;4.40;95.70
69418;DHT22;56610;48.872;2.400;2023-03-01T07:33:20;4.40;95.70
69418;DHT22;56610;48.872;2.400;2023-03-01T07:35:46;4.30;95.90
69418;DHT22;56610;48.872;2.400;2023-03-01T07:38:11;4.50;95.90
69418;DHT22;56610;48.872;2.400;2023-03-01T07:40:37;4.50;95.70
69418;DHT22;56610;48.872;2.400;2023-03-01T07:43:03;4.50;96.00
69418;DHT22;56610;48.872;2.400;2023-03-01T07:45:29;4.60;95.90
69418;DHT22;56610;48.872;2.400;2023-03-01T07:47:55;4.70;95.60
69418;DHT22;56610;48.872;2.400;2023-03-01T07:50:21;4.70;95.90
69418;DHT22;56610;48.872;2.400;2023-03-01T07:52:48;4.80;95.50
69418;DHT22;56610;48.872;2.400;2023-03-01T07:55:14;4.80;95.60
69418;DHT22;56610;48.872;2.400;2023-03-01T07:57:40;4.80;95.90
69418;DHT22;56610;48.872;2.400;2023-03-01T08:00:06;5.00;95.50
69418;DHT22;56610;48.872;2.400;2023-03-01T08:02:32;5.00;95.40
69418;DHT22;56610;48.872;2.400;2023-03-01T08:04:58;5.00;95.60
69418;DHT22;56610;48.872;2.400;2023-03-01T08:07:23;5.00;95.30
69418;DHT22;56610;48.872;2.400;2023-03-01T08:09:49;5.00;95.30
69418;DHT22;56610;48.872;2.400;2023-03-01T08:12:14;4.90;95.50
69418;DHT22;56610;48.872;2.400;2023-03-01T08:14:42;5.00;95.30
69418;DHT22;56610;48.872;2.400;2023-03-01T08:17:08;5.00;95.50
69418;DHT22;56610;48.872;2.400;2023-03-01T08:19:34;5.10;95.60
69418;DHT22;56610;48.872;2.400;2023-03-01T08:22:01;5.10;95.30
69418;DHT22;56610;48.872;2.400;2023-03-01T08:24:27;5.20;95.20
69418;DHT22;56610;48.872;2.400;2023-03-01T08:26:53;5.30;95.20
69418;DHT22;56610;48.872;2.400;2023-03-01T08:29:19;5.30;95.00
69418;DHT22;56610;48.872;2.400;2023-03-01T08:31:45;5.40;95.00
69418;DHT22;56610;48.872;2.400;2023-03-01T08:34:13;5.40;95.20
69418;DHT22;56610;48.872;2.400;2023-03-01T08:36:42;5.60;94.70
69418;DHT22;56610;48.872;2.400;2023-03-01T08:39:10;5.60;94.80
69418;DHT22;56610;48.872;2.400;2023-03-01T08:41:36;5.50;95.00
69418;DHT22;56610;48.872;2.400;2023-03-01T08:44:03;5.60;94.80
69418;DHT22;56610;48.872;2.400;2023-03-01T08:46:31;5.70;94.70
69418;DHT22;56610;48.872;2.400;2023-03-01T08:48:57;5.70;94.80
69418;DHT22;56610;48.872;2.400;2023-03-01T08:51:24;5.60;94.60
69418;DHT22;56610;48.872;2.400;2023-03-01T08:53:50;5.60;94.80
69418;DHT22;56610;48.872;2.400;2023-03-01T08:56:16;5.60;95.00
69418;DHT22;56610;48.872;2.400;2023-03-01T08:58:44;5.70;94.80
69418;DHT22;56610;48.872;2.400;2023-03-01T09:01:12;5.80;94.60
69418;DHT22;56610;48.872;2.400;2023-03-01T09:03:38;5.70;94.60
69418;DHT22;56610;48.872;2.400;2023-03-01T09:06:05;5.70;94.30
69418;DHT22;56610;48.872;2.400;2023-03-01T09:08:34;5.80;94.20
69418;DHT22;56610;48.872;2.400;2023-03-01T09:11:02;5.70;94.20
69418;DHT22;56610;48.872;2.400;2023-03-01T09:13:29;5.70;94.30
69418;DHT22;56610;48.872;2.400;2023-03-01T09:15:57;5.80;94.60
69418;DHT22;56610;48.872;2.400;2023-03-01T09:18:22;5.80;94.40
69418;DHT22;56610;48.872;2.400;2023-03-01T09:20:48;5.90;94.30
69418;DHT22;56610;48.872;2.400;2023-03-01T09:23:14;5.90;94.20
69418;DHT22;56610;48.872;2.400;2023-03-01T09:25:39;5.90;94.30
69418;DHT22;56610;48.872;2.400;2023-03-01T09:28:05;5.90;94.20
69418;DHT22;56610;48.872;2.400;2023-03-01T09:30:30;5.80;94.30
69418;DHT22;56610;48.872;2.400;2023-03-01T09:32:56;5.90;94.50
69418;DHT22;56610;48.872;2.400;2023-03-01T09:35:22;6.00;94.30
69418;DHT22;56610;48.872;2.400;2023-03-01T09:37:48;6.10;94.00
69418;DHT22;56610;48.872;2.400;2023-03-01T09:40:18;6.10;93.80
69418;DHT22;56610;48.872;2.400;2023-03-01T09:45:27;6.00;94.10
69418;DHT22;56610;48.872;2.400;2023-03-01T09:47:54;6.10;94.20
69418;DHT22;56610;48.872;2.400;2023-03-01T09:50:20;6.20;94.20
69418;DHT22;56610;48.872;2.400;2023-03-01T09:53:09;6.20;94.10
69418;DHT22;56610;48.872;2.400;2023-03-01T09:56:02;6.30;94.10
69418;DHT22;56610;48.872;2.400;2023-03-01T09:58:46;6.30;93.90
69418;DHT22;56610;48.872;2.400;2023-03-01T10:01:34;6.40;93.90
69418;DHT22;56610;48.872;2.400;2023-03-01T10:04:09;6.40;93.70
69418;DHT22;56610;48.872;2.400;2023-03-01T10:06:36;6.50;93.60
69418;DHT22;56610;48.872;2.400;2023-03-01T10:09:11;6.70;93.30
69418;DHT22;56610;48.872;2.400;2023-03-01T10:11:41;6.70;93.00
69418;DHT22;56610;48.872;2.400;2023-03-01T10:14:34;6.50;93.10
69418;DHT22;56610;48.872;2.400;2023-03-01T10:17:26;6.50;93.10
69418;DHT22;56610;48.872;2.400;2023-03-01T10:19:53;6.60;93.20
69418;DHT22;56610;48.872;2.400;2023-03-01T10:22:29;6.60;93.20
69418;DHT22;56610;48.872;2.400;2023-03-01T10:24:58;6.90;93.10
69418;DHT22;56610;48.872;2.400;2023-03-01T10:27:34;6.90;92.80
69418;DHT22;56610;48.872;2.400;2023-03-01T10:30:32;7.10;92.60
69418;DHT22;56610;48.872;2.400;2023-03-01T10:32:59;7.10;92.60
69418;DHT22;56610;48.872;2.400;2023-03-01T10:35:28;7.10;92.70
69418;DHT22;56610;48.872;2.400;2023-03-01T10:38:06;7.30;92.50
69418;DHT22;56610;48.872;2.400;2023-03-01T10:40:33;7.20;92.40
69418;DHT22;56610;48.872;2.400;2023-03-01T10:43:03;7.20;92.40
69418;DHT22;56610;48.872;2.400;2023-03-01T10:48:22;7.40;92.20
69418;DHT22;56610;48.872;2.400;2023-03-01T10:51:04;7.30;92.30
69418;DHT22;56610;48.872;2.400;2023-03-01T10:53:36;7.50;92.20
69418;DHT22;56610;48.872;2.400;2023-03-01T10:56:06;7.60;92.20
69418;DHT22;56610;48.872;2.400;2023-03-01T10:58:34;7.70;92.10
69418;DHT22;56610;48.872;2.400;2023-03-01T11:01:05;7.70;91.90
69418;DHT22;56610;48.872;2.400;2023-03-01T11:03:33;7.80;91.80
69418;DHT22;56610;48.872;2.400;2023-03-01T11:06:02;8.00;91.90
69418;DHT22;56610;48.872;2.400;2023-03-01T11:11:23;8.20;91.70
69418;DHT22;56610;48.872;2.400;2023-03-01T11:16:33;8.20;91.50
69418;DHT22;56610;48.872;2.400;2023-03-01T11:19:13;8.10;91.70
69418;DHT22;56610;48.872;2.400;2023-03-01T11:22:07;8.40;91.70
69418;DHT22;56610;48.872;2.400;2023-03-01T11:24:43;8.60;91.70
69418;DHT22;56610;48.872;2.400;2023-03-01T11:27:31;8.70;91.10
69418;DHT22;56610;48.872;2.400;2023-03-01T11:32:36;9.10;90.70
69418;DHT22;56610;48.872;2.400;2023-03-01T11:35:25;9.30;90.20
69418;DHT22;56610;48.872;2.400;2023-03-01T11:43:59;10.40;90.00
69418;DHT22;56610;48.872;2.400;2023-03-01T11:56:53;11.90;86.10
69418;DHT22;56610;48.872;2.400;2023-03-01T12:07:25;13.00;82.70
69418;DHT22;56610;48.872;2.400;2023-03-01T12:15:30;13.30;81.70
69418;DHT22;56610;48.872;2.400;2023-03-01T12:21:14;13.60;82.00
69418;DHT22;56610;48.872;2.400;2023-03-01T12:23:59;13.90;80.60
69418;DHT22;56610;48.872;2.400;2023-03-01T12:26:34;14.00;80.70
69418;DHT22;56610;48.872;2.400;2023-03-01T12:43:10;15.00;78.20
69418;DHT22;56610;48.872;2.400;2023-03-01T12:51:20;15.30;76.90
69418;DHT22;56610;48.872;2.400;2023-03-01T12:53:51;15.60;77.00
69418;DHT22;56610;48.872;2.400;2023-03-01T12:56:21;15.80;76.90
69418;DHT22;56610;48.872;2.400;2023-03-01T12:59:12;16.00;75.30
69418;DHT22;56610;48.872;2.400;2023-03-01T13:04:53;15.80;75.70
69418;DHT22;56610;48.872;2.400;2023-03-01T13:07:41;15.80;75.70
69418;DHT22;56610;48.872;2.400;2023-03-01T13:10:24;15.90;74.70
69418;DHT22;56610;48.872;2.400;2023-03-01T13:18:42;15.70;75.20
69418;DHT22;56610;48.872;2.400;2023-03-01T13:20:52;15.60;74.50
69418;DHT22;56610;48.872;2.400;2023-03-01T13:34:00;15.60;74.70
69418;DHT22;56610;48.872;2.400;2023-03-01T13:46:51;15.70;74.60
69418;DHT22;56610;48.872;2.400;2023-03-01T13:49:23;15.70;74.40
69418;DHT22;56610;48.872;2.400;2023-03-01T13:51:51;15.70;73.90
69418;DHT22;56610;48.872;2.400;2023-03-01T13:54:25;15.90;74.00
69418;DHT22;56610;48.872;2.400;2023-03-01T13:56:52;16.00;73.60
69418;DHT22;56610;48.872;2.400;2023-03-01T13:59:21;15.90;73.50
69418;DHT22;56610;48.872;2.400;2023-03-01T14:01:58;15.90;74.00
69418;DHT22;56610;48.872;2.400;2023-03-01T14:04:29;15.90;74.20
69418;DHT22;56610;48.872;2.400;2023-03-01T14:07:17;16.10;73.70
69418;DHT22;56610;48.872;2.400;2023-03-01T14:09:45;16.20;73.30
69418;DHT22;56610;48.872;2.400;2023-03-01T14:15:29;16.40;73.30
69418;DHT22;56610;48.872;2.400;2023-03-01T14:18:04;16.40;73.10
69418;DHT22;56610;48.872;2.400;2023-03-01T14:20:41;16.40;72.70
69418;DHT22;56610;48.872;2.400;2023-03-01T14:23:13;16.20;72.60
69418;DHT22;56610;48.872;2.400;2023-03-01T14:25:51;15.80;73.20
69418;DHT22;56610;48.872;2.400;2023-03-01T14:30:50;15.80;73.60
69418;DHT22;56610;48.872;2.400;2023-03-01T14:33:24;15.70;73.70
69418;DHT22;56610;48.872;2.400;2023-03-01T14:36:06;15.60;73.50
69418;DHT22;56610;48.872;2.400;2023-03-01T14:38:35;15.80;73.50
69418;DHT22;56610;48.872;2.400;2023-03-01T14:41:22;15.70;73.60
69418;DHT22;56610;48.872;2.400;2023-03-01T14:43:57;15.50;73.90
69418;DHT22;56610;48.872;2.400;2023-03-01T14:48:54;15.60;74.30
69418;DHT22;56610;48.872;2.400;2023-03-01T14:51:20;15.60;73.50
69418;DHT22;56610;48.872;2.400;2023-03-01T14:53:46;15.60;73.60
69418;DHT22;56610;48.872;2.400;2023-03-01T14:56:14;15.50;74.10
69418;DHT22;56610;48.872;2.400;2023-03-01T14:58:43;15.50;73.60
69418;DHT22;56610;48.872;2.400;2023-03-01T15:01:14;15.50;73.90
69418;DHT22;56610;48.872;2.400;2023-03-01T15:03:45;15.40;74.10
69418;DHT22;56610;48.872;2.400;2023-03-01T15:06:15;15.40;73.90
69418;DHT22;56610;48.872;2.400;2023-03-01T15:08:45;15.10;74.20
69418;DHT22;56610;48.872;2.400;2023-03-01T15:11:23;15.00;74.90
69418;DHT22;56610;48.872;2.400;2023-03-01T15:13:51;14.80;75.60
69418;DHT22;56610;48.872;2.400;2023-03-01T15:16:19;14.70;75.70
69418;DHT22;56610;48.872;2.400;2023-03-01T15:18:49;14.70;75.90
69418;DHT22;56610;48.872;2.400;2023-03-01T15:21:25;14.70;76.00
69418;DHT22;56610;48.872;2.400;2023-03-01T15:26:50;14.30;76.20
69418;DHT22;56610;48.872;2.400;2023-03-01T15:29:24;14.10;76.30
69418;DHT22;56610;48.872;2.400;2023-03-01T15:32:06;14.00;76.70
69418;DHT22;56610;48.872;2.400;2023-03-01T15:34:48;13.80;77.30
69418;DHT22;56610;48.872;2.400;2023-03-01T15:37:37;13.50;77.60
69418;DHT22;56610;48.872;2.400;2023-03-01T15:40:18;13.30;78.30
69418;DHT22;56610;48.872;2.400;2023-03-01T15:42:45;13.10;78.60
69418;DHT22;56610;48.872;2.400;2023-03-01T15:47:54;12.80;79.20
69418;DHT22;56610;48.872;2.400;2023-03-01T15:50:27;12.50;79.40
69418;DHT22;56610;48.872;2.400;2023-03-01T15:52:53;12.30;79.70
69418;DHT22;56610;48.872;2.400;2023-03-01T15:55:28;12.10;80.00
69418;DHT22;56610;48.872;2.400;2023-03-01T15:58:03;12.10;80.40
69418;DHT22;56610;48.872;2.400;2023-03-01T16:00:29;12.00;80.50
69418;DHT22;56610;48.872;2.400;2023-03-01T16:02:55;11.90;80.60
69418;DHT22;56610;48.872;2.400;2023-03-01T16:05:24;11.60;80.70
69418;DHT22;56610;48.872;2.400;2023-03-01T16:07:51;11.50;81.20
69418;DHT22;56610;48.872;2.400;2023-03-01T16:10:17;11.50;81.30
69418;DHT22;56610;48.872;2.400;2023-03-01T16:12:43;11.30;81.50
69418;DHT22;56610;48.872;2.400;2023-03-01T16:15:19;11.30;81.80
69418;DHT22;56610;48.872;2.400;2023-03-01T16:17:45;11.40;82.50
69418;DHT22;56610;48.872;2.400;2023-03-01T16:20:11;11.30;81.90
69418;DHT22;56610;48.872;2.400;2023-03-01T16:22:37;11.30;82.10
69418;DHT22;56610;48.872;2.400;2023-03-01T16:25:03;11.50;82.20
69418;DHT22;56610;48.872;2.400;2023-03-01T16:27:28;11.40;81.80
69418;DHT22;56610;48.872;2.400;2023-03-01T16:29:54;11.40;81.90
69418;DHT22;56610;48.872;2.400;2023-03-01T16:32:19;11.20;82.00
69418;DHT22;56610;48.872;2.400;2023-03-01T16:34:45;11.20;82.30
69418;DHT22;56610;48.872;2.400;2023-03-01T16:37:14;11.10;82.50
69418;DHT22;56610;48.872;2.400;2023-03-01T16:39:40;11.10;82.90
69418;DHT22;56610;48.872;2.400;2023-03-01T16:42:06;11.10;82.80
69418;DHT22;56610;48.872;2.400;2023-03-01T16:44:31;11.10;82.90
69418;DHT22;56610;48.872;2.400;2023-03-01T16:46:57;11.10;82.60
69418;DHT22;56610;48.872;2.400;2023-03-01T16:49:22;11.10;82.70
69418;DHT22;56610;48.872;2.400;2023-03-01T16:51:48;11.10;82.60
69418;DHT22;56610;48.872;2.400;2023-03-01T16:54:13;11.20;83.10
69418;DHT22;56610;48.872;2.400;2023-03-01T16:56:39;11.20;82.50
69418;DHT22;56610;48.872;2.400;2023-03-01T16:59:06;11.30;82.60
69418;DHT22;56610;48.872;2.400;2023-03-01T17:01:32;11.20;82.50
69418;DHT22;56610;48.872;2.400;2023-03-01T17:04:03;11.10;82.50
69418;DHT22;56610;48.872;2.400;2023-03-01T17:06:28;11.10;82.10
69418;DHT22;56610;48.872;2.400;2023-03-01T17:08:54;11.10;82.10
69418;DHT22;56610;48.872;2.400;2023-03-01T17:11:20;11.00;82.40
69418;DHT22;56610;48.872;2.400;2023-03-01T17:13:46;11.00;82.50
69418;DHT22;56610;48.872;2.400;2023-03-01T17:16:15;10.90;82.70
69418;DHT22;56610;48.872;2.400;2023-03-01T17:18:41;10.90;82.50
69418;DHT22;56610;48.872;2.400;2023-03-01T17:21:07;10.90;82.40
69418;DHT22;56610;48.872;2.400;2023-03-01T17:23:35;10.80;82.50
69418;DHT22;56610;48.872;2.400;2023-03-01T17:26:01;10.70;82.70
69418;DHT22;56610;48.872;2.400;2023-03-01T17:28:30;10.70;83.00
69418;DHT22;56610;48.872;2.400;2023-03-01T17:30:58;10.80;83.50
69418;DHT22;56610;48.872;2.400;2023-03-01T17:33:24;10.70;83.30
69418;DHT22;56610;48.872;2.400;2023-03-01T17:35:50;10.60;83.20
69418;DHT22;56610;48.872;2.400;2023-03-01T17:38:16;10.50;83.40
69418;DHT22;56610;48.872;2.400;2023-03-01T17:40:42;10.60;83.50
69418;DHT22;56610;48.872;2.400;2023-03-01T17:43:11;10.50;83.30
69418;DHT22;56610;48.872;2.400;2023-03-01T17:45:38;10.50;83.60
69418;DHT22;56610;48.872;2.400;2023-03-01T17:48:04;10.60;83.50
69418;DHT22;56610;48.872;2.400;2023-03-01T17:50:30;10.70;83.20
69418;DHT22;56610;48.872;2.400;2023-03-01T17:52:55;10.60;83.20
69418;DHT22;56610;48.872;2.400;2023-03-01T17:55:21;10.60;83.40
69418;DHT22;56610;48.872;2.400;2023-03-01T17:57:47;10.60;83.20